Time;durP1;ratioP1;P1;durP2;ratioP2;P2;SDS_P1;SDS_P2;PMS_P1;PMS_P2;Temp;Humidity;BMP_temperature;BMP_pressure;BME280_temperature;BME280_humidity;BME280_pressure;Samples;Min_cycle;Max_cycle;Signal;HPM_P1;HPM_P2
2021/04/27 00:00:12;;;;;;;4.63;1.20;;;;;;;2.32;56.31;101096.81;5008227;28;20163;-79
2021/04/27 00:02:40;;;;;;;2.20;1.27;;;;;;;2.16;57.03;101090.16;5008061;28;20447;-78
2021/04/27 00:05:08;;;;;;;3.20;1.40;;;;;;;2.10;58.41;101090.28;4990702;28;20118;-79
2021/04/27 00:07:35;;;;;;;3.70;1.52;;;;;;;2.31;56.59;101084.72;5007616;28;20074;-78
2021/04/27 00:10:04;;;;;;;3.15;1.20;;;;;;;2.19;56.88;101090.97;5009135;28;20121;-77
2021/04/27 00:12:31;;;;;;;3.78;1.60;;;;;;;2.17;57.04;101082.34;4997678;28;20061;-77
2021/04/27 00:14:58;;;;;;;3.70;1.08;;;;;;;2.25;56.57;101084.81;5018934;28;20038;-77
2021/04/27 00:17:25;;;;;;;2.55;1.13;;;;;;;2.13;57.10;101092.81;5015789;28;20092;-77
2021/04/27 00:19:52;;;;;;;5.60;1.20;;;;;;;1.94;57.67;101090.53;5018674;28;20054;-78
2021/04/27 00:22:18;;;;;;;2.33;1.10;;;;;;;1.93;57.17;101083.59;5021622;28;20080;-77
2021/04/27 00:24:45;;;;;;;3.85;1.75;;;;;;;2.10;57.36;101087.66;5019429;28;20069;-78
2021/04/27 00:27:12;;;;;;;5.43;1.50;;;;;;;1.85;57.72;101084.63;5001534;28;20120;-78
2021/04/27 00:29:38;;;;;;;3.30;1.40;;;;;;;1.85;58.98;101077.69;5024399;28;20334;-78
2021/04/27 00:32:05;;;;;;;3.05;1.50;;;;;;;2.01;57.89;101080.88;5026901;28;20069;-77
2021/04/27 00:34:32;;;;;;;6.45;1.70;;;;;;;2.04;57.63;101075.66;5008017;28;20046;-78
2021/04/27 00:36:59;;;;;;;4.28;1.52;;;;;;;2.21;56.59;101070.19;5027713;28;20077;-78
2021/04/27 00:39:26;;;;;;;3.40;1.25;;;;;;;2.14;57.00;101073.75;5011046;28;20088;-78
2021/04/27 00:41:52;;;;;;;4.95;1.48;;;;;;;2.07;57.30;101070.38;5027466;28;20070;-77
2021/04/27 00:44:19;;;;;;;3.30;1.40;;;;;;;2.25;57.06;101066.63;5009176;28;20125;-78
2021/04/27 00:46:46;;;;;;;5.00;1.50;;;;;;;2.06;57.04;101075.63;5022563;28;20073;-80
2021/04/27 00:49:13;;;;;;;3.47;1.50;;;;;;;1.75;57.67;101063.97;4996928;28;20077;-79
2021/04/27 00:51:39;;;;;;;4.03;1.60;;;;;;;1.68;57.91;101072.75;4986963;28;20065;-80
2021/04/27 00:54:07;;;;;;;4.88;1.83;;;;;;;1.75;57.34;101065.72;4997010;28;20165;-79
2021/04/27 00:56:35;;;;;;;7.10;1.77;;;;;;;1.76;57.28;101064.88;4967831;28;20060;-78
2021/04/27 00:59:02;;;;;;;5.90;2.00;;;;;;;1.73;57.51;101064.91;5011352;28;20069;-77
2021/04/27 01:01:30;;;;;;;4.22;1.95;;;;;;;1.60;59.82;101060.78;4992021;28;20065;-80
2021/04/27 01:03:56;;;;;;;4.53;1.83;;;;;;;1.45;59.95;101065.31;4998060;28;20130;-78
2021/04/27 01:06:23;;;;;;;2.47;1.60;;;;;;;1.38;60.46;101062.81;4991662;28;20034;-77
2021/04/27 01:09:01;;;;;;;4.25;2.00;;;;;;;1.29;61.06;101058.63;5027058;28;20114;-78
2021/04/27 01:11:40;;;;;;;4.50;1.60;;;;;;;1.34;60.04;101061.16;5029579;28;20063;-78
2021/04/27 01:14:19;;;;;;;4.03;1.80;;;;;;;1.60;61.06;101059.03;4992634;28;20069;-79
2021/04/27 01:16:49;;;;;;;2.95;1.55;;;;;;;1.62;61.03;101056.41;5004035;28;20140;-78
2021/04/27 01:19:29;;;;;;;6.40;1.67;;;;;;;1.53;61.21;101049.63;5007441;28;20050;-77
2021/04/27 01:21:56;;;;;;;4.40;2.10;;;;;;;1.86;61.57;101047.41;5023732;28;20125;-78
2021/04/27 01:24:30;;;;;;;5.90;2.78;;;;;;;1.63;59.20;101052.97;4999472;28;20061;-78
2021/04/27 01:26:59;;;;;;;4.63;1.75;;;;;;;1.46;59.51;101053.19;5004983;28;20118;-77
2021/04/27 01:33:43;;;;;;;4.72;1.73;;;;;;;1.14;60.34;101054.50;5021974;28;20048;-77
2021/04/27 01:36:10;;;;;;;5.00;2.08;;;;;;;1.01;60.57;101063.31;4976619;28;20069;-79
2021/04/27 01:38:37;;;;;;;6.80;2.03;;;;;;;1.17;59.16;101054.47;5012675;28;20082;-77
2021/04/27 01:41:04;;;;;;;4.93;1.90;;;;;;;1.25;58.50;101050.00;4993660;28;20450;-77
2021/04/27 01:43:31;;;;;;;6.20;2.00;;;;;;;1.45;57.58;101049.75;5018411;28;20117;-77
2021/04/27 01:46:02;;;;;;;5.15;1.92;;;;;;;1.35;59.77;101042.09;4998833;28;20078;-79
2021/04/27 01:48:30;;;;;;;4.32;1.73;;;;;;;1.17;60.88;101045.81;4999402;28;20438;-78
2021/04/27 01:50:57;;;;;;;2.92;1.67;;;;;;;1.24;60.73;101045.72;5023645;28;20137;-79
2021/04/27 01:53:24;;;;;;;8.98;2.33;;;;;;;1.08;60.81;101043.34;5012229;28;20061;-77
2021/04/27 01:55:51;;;;;;;7.78;2.33;;;;;;;1.05;60.04;101039.06;5014212;28;20915;-79
2021/04/27 01:58:18;;;;;;;6.05;2.67;;;;;;;0.97;59.99;101041.75;4990588;28;20601;-78
2021/04/27 02:00:45;;;;;;;6.13;1.80;;;;;;;0.96;60.46;101037.44;5016307;28;20146;-79
2021/04/27 02:03:12;;;;;;;6.40;2.58;;;;;;;0.95;59.25;101045.25;5001396;28;19985;-79
2021/04/27 02:05:39;;;;;;;10.38;2.53;;;;;;;1.06;60.08;101043.38;5022495;28;20100;-78
2021/04/27 02:08:06;;;;;;;12.00;2.13;;;;;;;0.92;59.46;101040.09;5003017;28;20054;-78
2021/04/27 02:10:32;;;;;;;16.48;4.25;;;;;;;0.94;59.78;101040.94;4976511;28;20042;-78
2021/04/27 02:13:12;;;;;;;14.35;2.20;;;;;;;1.18;58.71;101040.63;5005429;28;20050;-78
2021/04/27 02:15:41;;;;;;;13.82;2.83;;;;;;;0.94;59.19;101040.94;4999546;28;20053;-79
2021/04/27 02:18:33;;;;;;;6.78;1.98;;;;;;;1.24;59.28;101035.34;5023032;28;20060;-79
2021/04/27 02:21:00;;;;;;;6.57;2.00;;;;;;;0.99;59.33;101037.41;5031028;28;20089;-79
2021/04/27 02:23:31;;;;;;;4.28;1.88;;;;;;;1.13;57.28;101037.25;4986322;28;20042;-79
2021/04/27 02:25:58;;;;;;;5.35;2.08;;;;;;;1.17;57.04;101035.44;5020714;28;20124;-80
2021/04/27 02:28:26;;;;;;;6.18;2.10;;;;;;;1.30;56.24;101025.75;5010977;28;20064;-79
2021/04/27 02:30:53;;;;;;;7.10;2.42;;;;;;;1.20;56.39;101028.47;4997286;28;20064;-79
2021/04/27 02:33:21;;;;;;;5.45;2.03;;;;;;;1.23;56.64;101022.41;5013797;28;20058;-78
2021/04/27 02:35:49;;;;;;;12.57;2.20;;;;;;;1.37;56.26;101022.19;5000446;28;20092;-79
2021/04/27 02:38:20;;;;;;;7.63;2.30;;;;;;;1.32;56.03;101021.41;5016149;28;20120;-78
2021/04/27 02:40:55;;;;;;;6.70;2.35;;;;;;;1.23;56.64;101020.66;4992393;28;20104;-78
2021/04/27 02:43:23;;;;;;;4.90;2.10;;;;;;;1.20;56.16;101014.66;5019020;28;20046;-78
2021/04/27 02:45:49;;;;;;;4.95;1.70;;;;;;;1.26;56.75;101022.34;5002588;28;20148;-78
2021/04/27 02:48:19;;;;;;;8.75;2.00;;;;;;;1.30;56.17;101026.59;5025603;28;20089;-80
2021/04/27 02:50:55;;;;;;;4.22;1.65;;;;;;;1.44;55.49;101016.91;4983039;28;20328;-77
2021/04/27 02:53:22;;;;;;;5.60;2.45;;;;;;;1.31;56.27;101012.78;5020857;28;20053;-77
2021/04/27 02:55:49;;;;;;;4.78;1.90;;;;;;;1.42;55.60;101017.81;5002631;28;20066;-78
2021/04/27 02:58:16;;;;;;;4.32;1.58;;;;;;;1.29;56.21;101021.44;5025493;28;20098;-77
2021/04/27 03:00:44;;;;;;;5.93;1.90;;;;;;;1.31;55.76;101012.78;5022433;28;20058;-79
2021/04/27 03:03:10;;;;;;;5.28;2.05;;;;;;;1.43;55.51;101012.56;5014051;28;20654;-79
2021/04/27 03:05:38;;;;;;;9.32;2.08;;;;;;;1.45;55.06;101012.56;4995903;28;20049;-79
2021/04/27 03:08:10;;;;;;;4.85;2.05;;;;;;;1.36;55.40;101013.56;5016397;28;20141;-79
2021/04/27 03:10:37;;;;;;;5.25;1.92;;;;;;;1.33;55.73;101016.19;4996327;28;20078;-80
2021/04/27 03:13:04;;;;;;;5.93;2.15;;;;;;;1.35;55.13;101014.47;5000337;28;20580;-79
2021/04/27 03:15:31;;;;;;;8.32;1.90;;;;;;;1.30;55.26;101011.03;4996531;28;20045;-79
2021/04/27 03:17:58;;;;;;;4.75;2.00;;;;;;;1.29;55.20;101016.25;5007220;28;20113;-79
2021/04/27 03:20:25;;;;;;;3.63;2.10;;;;;;;1.34;55.41;101019.66;5005013;28;20053;-78
2021/04/27 03:22:52;;;;;;;4.80;2.55;;;;;;;1.35;55.23;101011.88;4997506;28;20102;-78
2021/04/27 03:25:19;;;;;;;3.53;1.85;;;;;;;1.30;55.14;101013.63;4982417;28;20133;-76
2021/04/27 03:27:46;;;;;;;6.13;2.08;;;;;;;1.18;55.88;101016.44;5018828;28;20472;-78
2021/04/27 03:30:13;;;;;;;6.50;2.00;;;;;;;1.32;54.85;101011.03;5018163;28;20306;-78
2021/04/27 03:32:40;;;;;;;5.53;1.85;;;;;;;1.33;54.97;101011.00;5007129;22;20093;-69
2021/04/27 03:35:10;;;;;;;5.45;1.95;;;;;;;1.33;55.00;101004.97;5046255;28;20052;-70
2021/04/27 03:37:37;;;;;;;4.25;1.88;;;;;;;1.32;55.13;101000.66;5051761;28;20158;-69
2021/04/27 03:40:06;;;;;;;11.63;4.10;;;;;;;1.31;54.88;101002.41;5043185;28;20132;-70
2021/04/27 03:42:33;;;;;;;6.15;1.73;;;;;;;1.40;54.98;101007.47;5038194;28;20047;-70
2021/04/27 03:45:00;;;;;;;6.53;1.70;;;;;;;1.36;54.93;101000.59;5047591;28;20653;-70
2021/04/27 03:47:26;;;;;;;4.53;1.60;;;;;;;1.27;54.94;100995.56;5048980;28;20076;-69
2021/04/27 03:49:56;;;;;;;2.75;1.40;;;;;;;1.40;54.63;100993.63;5067529;28;20598;-69
2021/04/27 03:52:23;;;;;;;20.23;2.38;;;;;;;1.41;54.38;100993.59;5044461;28;20479;-67
2021/04/27 03:54:50;;;;;;;3.95;1.65;;;;;;;1.42;54.34;100999.63;5070274;28;20451;-68
2021/04/27 03:57:16;;;;;;;3.72;1.90;;;;;;;1.35;54.88;101006.69;5064873;28;20050;-69
2021/04/27 03:59:43;;;;;;;4.45;2.05;;;;;;;1.46;54.88;100998.72;5036548;28;20075;-69
2021/04/27 04:02:10;;;;;;;4.68;1.70;;;;;;;1.50;54.73;101009.03;5043483;28;20156;-69
2021/04/27 04:04:36;;;;;;;3.13;1.60;;;;;;;1.49;54.59;101009.91;5067682;28;20595;-68
2021/04/27 04:07:07;;;;;;;4.95;1.65;;;;;;;1.59;54.57;101014.94;5053436;28;20060;-68
2021/04/27 04:09:34;;;;;;;4.57;1.88;;;;;;;1.51;54.69;101012.47;5038209;28;20395;-68
2021/04/27 04:12:00;;;;;;;5.80;1.83;;;;;;;1.62;54.02;101015.78;5053410;28;20562;-68
2021/04/27 04:14:27;;;;;;;3.88;1.60;;;;;;;1.59;54.20;101009.75;5043187;28;20660;-66
2021/04/27 04:16:54;;;;;;;6.43;2.00;;;;;;;1.67;54.21;101016.56;5064899;28;20100;-68
2021/04/27 04:19:21;;;;;;;5.57;1.60;;;;;;;1.68;54.33;101015.66;5039089;28;20052;-70
2021/04/27 04:21:47;;;;;;;4.97;1.73;;;;;;;1.71;53.57;101017.34;5041722;28;20040;-68
2021/04/27 04:24:14;;;;;;;3.72;1.65;;;;;;;1.62;54.19;101020.06;5066751;28;20052;-68
2021/04/27 04:26:41;;;;;;;4.07;1.45;;;;;;;1.79;53.96;101023.25;5042449;28;20064;-69
2021/04/27 04:29:08;;;;;;;5.82;2.00;;;;;;;1.82;54.20;101018.03;5072023;28;20084;-68
2021/04/27 04:31:34;;;;;;;5.25;1.85;;;;;;;3.04;52.23;101017.44;5028604;28;20048;-70
2021/04/27 04:34:01;;;;;;;2.42;1.52;;;;;;;4.65;47.72;101018.66;5039148;28;20191;-70
2021/04/27 04:36:28;;;;;;;8.52;2.30;;;;;;;5.62;44.48;101017.44;5062961;28;20048;-70
2021/04/27 04:38:56;;;;;;;5.00;2.15;;;;;;;6.23;42.27;101017.19;5071593;28;21273;-70
2021/04/27 04:41:24;;;;;;;5.35;1.80;;;;;;;7.09;40.90;101005.28;5045425;28;20135;-70
2021/04/27 04:43:50;;;;;;;5.40;2.00;;;;;;;8.36;37.55;101005.34;5078788;28;20052;-70
2021/04/27 04:46:18;;;;;;;4.45;1.73;;;;;;;9.48;36.25;101002.84;5066704;28;20108;-70
2021/04/27 04:48:47;;;;;;;3.67;1.80;;;;;;;9.86;35.11;101007.97;5049779;28;20111;-72
2021/04/27 04:51:14;;;;;;;7.97;1.83;;;;;;;11.23;32.58;100996.41;5042705;28;20057;-67
2021/04/27 04:53:41;;;;;;;9.02;2.00;;;;;;;11.47;32.26;101004.72;5066945;28;20056;-69
2021/04/27 04:56:07;;;;;;;10.02;2.08;;;;;;;11.94;31.33;101009.97;5043763;28;20128;-68
2021/04/27 04:58:34;;;;;;;5.63;2.20;;;;;;;12.45;30.29;101007.78;5057374;28;20048;-69
2021/04/27 05:01:01;;;;;;;5.55;1.88;;;;;;;12.48;29.67;101002.34;5040316;28;20104;-69
2021/04/27 05:03:29;;;;;;;6.85;2.83;;;;;;;13.27;29.07;101001.81;5045801;28;20038;-70
2021/04/27 05:05:55;;;;;;;4.35;2.17;;;;;;;12.89;29.09;101001.56;5066955;28;20164;-71
2021/04/27 05:08:24;;;;;;;4.43;2.22;;;;;;;13.45;28.05;101001.56;5066680;28;20077;-68
2021/04/27 05:10:51;;;;;;;8.73;2.13;;;;;;;12.77;28.56;101005.81;5043498;28;20044;-64
2021/04/27 05:13:19;;;;;;;7.25;3.20;;;;;;;13.31;28.53;101003.31;5038792;28;20086;-69
2021/04/27 05:15:45;;;;;;;4.50;2.00;;;;;;;14.03;27.07;101001.22;5036338;28;20127;-68
2021/04/27 05:18:15;;;;;;;4.75;2.38;;;;;;;13.32;28.05;101002.34;5040048;28;20720;-70
2021/04/27 05:20:42;;;;;;;4.82;2.30;;;;;;;14.16;27.63;100996.78;5040906;28;20179;-69
2021/04/27 05:23:08;;;;;;;4.90;2.42;;;;;;;14.75;26.64;101000.72;5062268;28;20072;-69
2021/04/27 05:25:35;;;;;;;5.50;2.10;;;;;;;14.26;26.71;100998.81;5031558;28;20051;-70
2021/04/27 05:28:02;;;;;;;6.35;2.53;;;;;;;13.72;27.85;100999.75;5038321;28;20694;-69
2021/04/27 05:30:29;;;;;;;3.70;2.03;;;;;;;13.67;27.31;101001.84;5044596;28;20135;-70
2021/04/27 05:32:56;;;;;;;5.93;2.60;;;;;;;13.81;27.69;100999.16;5021159;28;20049;-70
2021/04/27 05:35:22;;;;;;;8.30;2.80;;;;;;;14.01;27.54;100997.00;5060348;28;20067;-70
2021/04/27 05:37:49;;;;;;;5.80;2.80;;;;;;;14.76;26.64;100997.13;5051219;28;20052;-70
2021/04/27 05:40:17;;;;;;;9.85;3.10;;;;;;;15.31;25.85;100993.16;5060047;28;20088;-70
2021/04/27 05:42:44;;;;;;;6.90;2.53;;;;;;;14.59;26.44;101004.47;5048527;28;20057;-68
2021/04/27 05:45:11;;;;;;;5.72;2.10;;;;;;;16.71;24.18;100995.78;5044312;28;20478;-68
2021/04/27 05:47:38;;;;;;;6.82;2.20;;;;;;;17.52;22.79;101001.75;5055047;28;20078;-69
2021/04/27 05:50:06;;;;;;;6.93;2.30;;;;;;;16.68;23.43;101001.34;5071575;22;20029;-71
2021/04/27 05:52:33;;;;;;;21.90;5.45;;;;;;;15.81;25.23;101004.56;5022386;28;20147;-71
2021/04/27 05:55:00;;;;;;;5.32;2.78;;;;;;;16.73;24.06;101003.69;5045254;28;20465;-70
2021/04/27 05:57:26;;;;;;;5.20;2.58;;;;;;;18.46;21.70;100992.06;5045221;28;20056;-73
2021/04/27 05:59:53;;;;;;;4.32;2.15;;;;;;;15.23;25.11;100999.03;5051084;28;20041;-71
2021/04/27 06:02:20;;;;;;;2.92;1.90;;;;;;;16.71;23.25;101001.13;5028634;28;20047;-71
2021/04/27 06:04:46;;;;;;;5.43;2.17;;;;;;;18.13;21.93;100993.97;5044529;28;20525;-72
2021/04/27 06:07:13;;;;;;;3.33;2.15;;;;;;;18.09;21.93;100989.03;5043722;28;20045;-70
2021/04/27 06:09:40;;;;;;;5.30;2.10;;;;;;;17.85;22.08;100998.13;5046998;28;20063;-70
2021/04/27 06:12:07;;;;;;;9.70;2.63;;;;;;;19.98;20.06;101001.59;5045955;28;20137;-70
2021/04/27 06:14:34;;;;;;;15.27;2.50;;;;;;;19.01;21.10;101000.63;5046616;28;20712;-69
2021/04/27 06:17:00;;;;;;;5.63;2.50;;;;;;;18.45;21.70;100999.22;5041645;28;20586;-69
2021/04/27 06:19:27;;;;;;;4.40;1.90;;;;;;;19.05;20.68;100996.72;5029989;28;20131;-70
2021/04/27 06:21:54;;;;;;;9.15;2.60;;;;;;;19.01;20.74;100995.28;5027359;28;20045;-70
2021/04/27 06:24:22;;;;;;;6.22;2.00;;;;;;;19.20;20.24;100994.50;5025685;28;20136;-69
2021/04/27 06:27:08;;;;;;;4.68;2.45;;;;;;;19.47;20.15;100992.00;5028847;28;20049;-69
2021/04/27 06:29:46;;;;;;;5.15;2.90;;;;;;;19.63;19.99;100994.19;5043300;28;20612;-69
2021/04/27 06:32:13;;;;;;;18.88;11.13;;;;;;;19.57;20.24;100994.69;5006322;28;20050;-70
2021/04/27 06:34:40;;;;;;;6.43;3.13;;;;;;;20.39;19.64;101007.56;5027828;28;20084;-72
2021/04/27 06:37:07;;;;;;;13.02;2.95;;;;;;;21.29;18.29;100995.38;5048784;28;20053;-72
2021/04/27 06:39:33;;;;;;;2.53;1.80;;;;;;;20.91;18.36;101004.47;5015690;28;20052;-72
2021/04/27 06:42:03;;;;;;;3.90;1.90;;;;;;;19.06;19.93;101001.06;5017735;28;20060;-71
2021/04/27 06:44:33;;;;;;;3.40;1.88;;;;;;;18.52;20.76;101006.72;5025131;28;20661;-72
2021/04/27 06:47:00;;;;;;;6.65;2.42;;;;;;;18.74;20.84;101003.06;5029754;28;20134;-72
2021/04/27 06:49:27;;;;;;;4.43;2.63;;;;;;;19.79;19.63;101004.28;5011587;28;20068;-71
2021/04/27 06:51:54;;;;;;;3.38;2.13;;;;;;;20.15;18.50;101008.06;5024290;28;20151;-72
2021/04/27 06:54:20;;;;;;;6.00;2.17;;;;;;;19.48;19.65;101000.84;5015362;28;20033;-72
2021/04/27 06:56:47;;;;;;;4.47;2.40;;;;;;;18.80;19.50;101005.19;5019779;28;20083;-71
2021/04/27 06:59:34;;;;;;;5.13;2.05;;;;;;;20.22;18.47;101003.84;5021310;28;20140;-73
2021/04/27 07:02:03;;;;;;;5.35;2.17;;;;;;;20.83;17.54;101009.72;5046101;28;20123;-72
2021/04/27 07:04:30;;;;;;;3.00;1.83;;;;;;;21.21;17.41;101001.50;4999120;28;20032;-72
2021/04/27 07:06:57;;;;;;;3.58;2.25;;;;;;;20.15;18.27;101005.38;5034742;28;20113;-72
2021/04/27 07:09:24;;;;;;;5.25;2.58;;;;;;;18.16;19.74;101000.88;5041693;28;20256;-73
2021/04/27 07:11:51;;;;;;;5.57;2.08;;;;;;;20.81;17.23;101001.84;5050151;28;20049;-72
2021/04/27 07:14:17;;;;;;;2.83;1.83;;;;;;;20.46;17.14;101007.84;5066847;28;20123;-73
2021/04/27 07:16:49;;;;;;;3.58;1.90;;;;;;;20.00;17.15;100996.13;5065497;28;20060;-72
2021/04/27 07:19:16;;;;;;;3.47;2.03;;;;;;;18.63;18.85;101004.78;5043201;28;20120;-72
2021/04/27 07:21:43;;;;;;;2.50;1.92;;;;;;;19.73;18.18;100999.53;5023694;28;20045;-73
2021/04/27 07:24:11;;;;;;;3.45;2.00;;;;;;;21.11;16.70;100992.66;5013043;28;20049;-73
2021/04/27 07:26:42;;;;;;;5.90;1.70;;;;;;;20.50;17.00;101013.78;5040198;28;20123;-72
2021/04/27 07:29:09;;;;;;;5.18;1.70;;;;;;;20.52;16.86;101007.28;5051615;28;20094;-70
2021/04/27 07:31:36;;;;;;;2.38;1.40;;;;;;;19.82;17.80;100996.00;5051434;28;20044;-73
2021/04/27 07:34:04;;;;;;;4.38;1.20;;;;;;;21.04;16.55;101006.81;5031621;28;20087;-72
2021/04/27 07:36:33;;;;;;;5.03;1.40;;;;;;;21.52;16.16;100993.13;5012871;28;20139;-72
2021/04/27 07:39:00;;;;;;;2.78;1.33;;;;;;;20.67;16.35;100997.00;5048455;28;20148;-72
2021/04/27 07:41:28;;;;;;;4.03;1.42;;;;;;;19.75;17.34;100999.38;4998402;28;20176;-73
2021/04/27 07:43:55;;;;;;;2.55;1.20;;;;;;;20.58;16.70;101004.06;5032283;28;20913;-72
2021/04/27 07:46:22;;;;;;;6.32;1.90;;;;;;;20.59;17.17;101004.91;5029101;28;20107;-73
2021/04/27 07:48:49;;;;;;;3.92;1.50;;;;;;;21.26;15.95;100998.38;5013092;28;20091;-72
2021/04/27 07:51:17;;;;;;;4.35;1.48;;;;;;;21.99;16.09;100990.22;5034911;28;20053;-73
2021/04/27 07:53:43;;;;;;;5.07;1.35;;;;;;;22.12;15.88;100996.03;5049332;28;20091;-74
2021/04/27 07:56:10;;;;;;;5.75;1.92;;;;;;;21.95;15.74;100995.03;5009144;28;20051;-71
2021/04/27 07:58:37;;;;;;;3.63;1.48;;;;;;;20.50;16.86;100995.91;5031821;28;20084;-72
2021/04/27 08:01:05;;;;;;;6.60;4.03;;;;;;;20.10;16.70;100996.94;5030723;28;20194;-71
2021/04/27 08:03:35;;;;;;;8.23;2.60;;;;;;;20.29;16.58;101001.41;5028104;28;20060;-70
2021/04/27 08:06:02;;;;;;;3.83;1.30;;;;;;;20.95;16.15;100997.84;5013256;28;20441;-71
2021/04/27 08:08:29;;;;;;;9.77;1.90;;;;;;;21.62;16.13;100993.91;5030596;28;20059;-72
2021/04/27 08:10:56;;;;;;;4.03;1.83;;;;;;;21.24;15.55;100995.00;5048335;28;20104;-72
2021/04/27 08:13:26;;;;;;;5.55;1.25;;;;;;;18.86;17.88;100996.63;5031455;28;20041;-72
2021/04/27 08:15:55;;;;;;;7.95;3.47;;;;;;;18.69;17.71;100996.31;5024756;28;20072;-71
2021/04/27 08:18:22;;;;;;;8.75;4.80;;;;;;;18.84;17.93;100995.94;5032771;28;20049;-72
2021/04/27 08:20:50;;;;;;;6.18;3.13;;;;;;;20.11;16.27;100989.78;5016669;28;20093;-71
2021/04/27 08:23:17;;;;;;;3.45;1.60;;;;;;;20.30;16.58;100995.06;5028580;28;20052;-72
2021/04/27 08:25:58;;;;;;;3.08;1.20;;;;;;;21.70;15.41;100980.59;5033420;28;20052;-73
2021/04/27 08:28:25;;;;;;;2.58;1.10;;;;;;;21.34;15.96;100984.25;5027822;28;20080;-72
2021/04/27 08:30:52;;;;;;;4.28;0.95;;;;;;;20.31;15.70;100986.09;5012557;28;20079;-71
2021/04/27 08:33:19;;;;;;;3.13;1.17;;;;;;;18.68;16.72;100983.88;5012430;28;20071;-73
2021/04/27 08:35:46;;;;;;;2.85;1.50;;;;;;;15.59;19.75;100992.84;5016399;28;20048;-72
2021/04/27 08:38:13;;;;;;;5.03;1.30;;;;;;;13.36;21.81;100992.44;5014510;28;20059;-72
2021/04/27 08:40:40;;;;;;;2.35;1.00;;;;;;;12.23;23.68;101005.59;5029365;28;20052;-72
2021/04/27 08:43:07;;;;;;;3.58;1.38;;;;;;;11.88;24.81;100994.47;5013341;28;20041;-71
2021/04/27 08:45:39;;;;;;;1.73;1.10;;;;;;;11.94;24.18;100991.50;5030758;28;20045;-71
2021/04/27 08:48:08;;;;;;;2.92;1.30;;;;;;;11.83;24.38;100996.53;5014335;28;20069;-72
2021/04/27 08:50:36;;;;;;;4.22;1.42;;;;;;;11.88;24.58;100991.84;5029192;28;21026;-71
2021/04/27 08:53:04;;;;;;;2.05;1.35;;;;;;;11.80;24.48;100986.16;5029786;28;20491;-72
2021/04/27 08:55:31;;;;;;;3.20;1.58;;;;;;;11.27;25.46;100985.63;5012700;28;20053;-73
2021/04/27 08:57:57;;;;;;;4.93;1.77;;;;;;;10.30;26.77;100981.22;5034430;28;20167;-72
2021/04/27 09:00:25;;;;;;;4.63;1.40;;;;;;;10.70;26.75;100987.88;5031696;28;20041;-71
2021/04/27 09:02:58;;;;;;;5.00;1.30;;;;;;;10.69;26.29;100978.28;5033693;28;20337;-71
2021/04/27 09:05:33;;;;;;;5.35;1.40;;;;;;;10.06;27.16;100976.28;5032139;28;20061;-71
2021/04/27 09:08:37;;;;;;;3.97;1.52;;;;;;;10.10;26.77;100971.72;5016346;28;20053;-72
2021/04/27 09:11:31;;;;;;;3.10;1.50;;;;;;;10.03;28.68;100971.16;5027608;28;20092;-72
2021/04/27 09:14:19;;;;;;;2.97;1.55;;;;;;;9.32;29.07;100970.31;5030640;28;20151;-72
2021/04/27 09:16:51;;;;;;;6.55;1.80;;;;;;;9.22;29.89;100972.53;5032314;28;20140;-72
2021/04/27 09:19:39;;;;;;;3.67;1.05;;;;;;;9.44;30.04;100964.47;4996785;28;20052;-72
2021/04/27 09:22:27;;;;;;;3.15;1.80;;;;;;;9.57;29.79;100959.47;5054173;28;20083;-72
2021/04/27 09:25:02;;;;;;;6.15;1.80;;;;;;;10.10;28.40;100956.78;5035806;28;20160;-71
2021/04/27 09:27:29;;;;;;;4.63;1.10;;;;;;;9.80;28.28;100953.94;5050938;28;20170;-72
2021/04/27 09:29:58;;;;;;;2.80;1.52;;;;;;;9.99;28.87;100953.00;5019540;28;20071;-73
2021/04/27 09:32:36;;;;;;;3.60;1.35;;;;;;;9.63;28.54;100952.13;5012857;28;20140;-73
2021/04/27 09:35:27;;;;;;;9.00;1.55;;;;;;;9.41;29.55;100955.91;5041592;28;20052;-73
2021/04/27 09:38:23;;;;;;;1.75;1.10;;;;;;;8.82;29.81;100944.69;5047252;28;20098;-72
2021/04/27 09:41:01;;;;;;;3.70;1.35;;;;;;;9.33;30.12;100954.50;5046997;28;20567;-74
2021/04/27 09:43:37;;;;;;;2.72;1.15;;;;;;;9.58;28.86;100935.75;5009353;28;20053;-71
2021/04/27 09:46:11;;;;;;;2.65;1.13;;;;;;;9.47;29.26;100926.72;5008131;28;20104;-72
2021/04/27 09:48:41;;;;;;;4.30;1.27;;;;;;;9.93;29.10;100943.63;5009424;28;20041;-73
2021/04/27 09:51:30;;;;;;;2.92;1.00;;;;;;;9.82;27.99;100923.16;4999231;28;20136;-71
2021/04/27 09:54:11;;;;;;;2.05;1.00;;;;;;;10.12;28.37;100928.59;5023294;28;20108;-72
2021/04/27 09:56:49;;;;;;;1.77;1.27;;;;;;;10.07;27.87;100919.25;5026859;28;20040;-72
2021/04/27 09:59:19;;;;;;;1.77;1.02;;;;;;;9.96;28.62;100917.19;5050064;28;20517;-71
2021/04/27 10:01:51;;;;;;;1.92;1.02;;;;;;;10.27;28.18;100921.75;5049651;28;20052;-72
2021/04/27 10:04:18;;;;;;;3.95;1.58;;;;;;;10.10;28.50;100927.84;5011507;28;20055;-73
2021/04/27 10:06:46;;;;;;;4.35;1.52;;;;;;;10.41;27.76;100913.09;5027563;28;20148;-72
2021/04/27 10:09:13;;;;;;;2.42;1.17;;;;;;;10.26;28.38;100904.22;5026061;28;20147;-71
2021/04/27 10:11:39;;;;;;;6.15;1.20;;;;;;;10.53;26.97;100914.22;5031186;28;20152;-70
2021/04/27 10:14:07;;;;;;;2.25;1.33;;;;;;;10.27;26.63;100905.94;5026426;28;20080;-70
2021/04/27 10:16:35;;;;;;;7.60;1.42;;;;;;;10.03;27.96;100917.72;5028060;28;20053;-71
2021/04/27 10:19:07;;;;;;;5.07;1.40;;;;;;;10.11;27.29;100907.66;5030132;28;20071;-70
2021/04/27 10:21:35;;;;;;;2.72;1.02;;;;;;;10.03;26.71;100901.94;5026268;28;20151;-69
2021/04/27 10:24:05;;;;;;;1.23;0.82;;;;;;;10.14;26.86;100899.59;5027538;28;20141;-69
2021/04/27 10:26:33;;;;;;;1.67;1.42;;;;;;;10.13;26.62;100888.22;5011982;28;21018;-68
2021/04/27 10:29:07;;;;;;;2.28;1.20;;;;;;;10.30;26.14;100894.38;5012639;28;20066;-70
2021/04/27 10:31:41;;;;;;;4.20;1.02;;;;;;;10.06;26.45;100884.22;5032954;28;20066;-70
2021/04/27 10:34:15;;;;;;;3.33;1.27;;;;;;;10.24;26.52;100882.41;5018004;28;20462;-69
2021/04/27 10:36:48;;;;;;;3.33;1.13;;;;;;;10.21;26.53;100889.59;5032007;28;20380;-72
2021/04/27 10:39:17;;;;;;;1.60;1.02;;;;;;;10.34;26.15;100878.34;5027067;28;20085;-70
2021/04/27 10:41:53;;;;;;;2.50;1.00;;;;;;;10.41;25.42;100886.78;5026582;28;20136;-71
2021/04/27 10:44:21;;;;;;;4.97;1.30;;;;;;;10.39;25.90;100862.31;5019008;28;20103;-71
2021/04/27 10:46:51;;;;;;;2.60;1.48;;;;;;;10.28;26.27;100865.53;5028132;28;20060;-69
2021/04/27 10:49:38;;;;;;;4.85;1.50;;;;;;;10.04;26.82;100877.31;5028630;28;20065;-70
2021/04/27 10:52:06;;;;;;;5.25;1.48;;;;;;;9.88;27.15;100861.50;5022576;28;20092;-70
2021/04/27 10:54:37;;;;;;;3.13;1.30;;;;;;;9.95;27.34;100857.63;5014223;28;20052;-70
2021/04/27 10:57:15;;;;;;;4.90;1.73;;;;;;;10.21;27.26;100850.13;4996831;28;20049;-70
2021/04/27 11:00:02;;;;;;;2.28;1.38;;;;;;;9.62;28.31;100858.44;5030770;28;20120;-70
2021/04/27 11:02:30;;;;;;;2.85;1.30;;;;;;;9.99;28.14;100855.66;5028270;28;20063;-70
2021/04/27 11:05:01;;;;;;;2.65;1.75;;;;;;;9.85;28.74;100851.13;5014223;28;20129;-69
2021/04/27 11:07:28;;;;;;;2.45;1.25;;;;;;;9.87;28.69;100838.78;5018709;28;20507;-73
2021/04/27 11:12:52;;;;;;;7.25;1.45;;;;;;;10.29;28.60;100840.06;5048513;28;20056;-71
2021/04/27 11:15:19;;;;;;;4.18;1.70;;;;;;;10.28;28.80;100828.69;5020169;28;20056;-72
2021/04/27 11:18:10;;;;;;;6.13;1.63;;;;;;;10.36;28.55;100841.44;5056821;28;20061;-73
2021/04/27 11:20:53;;;;;;;2.78;1.60;;;;;;;10.32;28.71;100830.25;5001912;28;20040;-72
2021/04/27 11:23:52;;;;;;;3.53;1.20;;;;;;;10.26;28.54;100827.91;4995616;28;20045;-72
2021/04/27 11:26:39;;;;;;;4.28;1.50;;;;;;;10.22;29.12;100825.50;5012461;28;20117;-71
2021/04/27 11:29:20;;;;;;;9.07;2.65;;;;;;;10.19;28.92;100823.06;5007536;28;20053;-71
2021/04/27 11:32:04;;;;;;;4.68;1.63;;;;;;;10.19;29.74;100815.16;5023330;28;20392;-72
2021/04/27 11:34:46;;;;;;;2.03;1.30;;;;;;;10.26;29.09;100793.72;5044561;28;20033;-71
2021/04/27 11:37:23;;;;;;;4.63;1.58;;;;;;;10.47;28.61;100807.47;5011257;28;20540;-72
2021/04/27 11:39:51;;;;;;;5.03;1.80;;;;;;;10.19;29.24;100807.28;5008603;28;20090;-70
2021/04/27 11:42:30;;;;;;;3.13;1.58;;;;;;;10.22;28.45;100804.47;5033853;28;20063;-70
2021/04/27 11:45:03;;;;;;;3.13;1.45;;;;;;;10.24;29.08;100810.50;5031167;28;20529;-70
2021/04/27 11:47:34;;;;;;;4.03;1.45;;;;;;;10.35;28.53;100792.34;5006665;28;20064;-70